Time;durP1;ratioP1;P1;durP2;ratioP2;P2;SDS_P1;SDS_P2;PMS_P1;PMS_P2;Temp;Humidity;BMP_temperature;BMP_pressure;BME280_temperature;BME280_humidity;BME280_pressure;Samples;Min_cycle;Max_cycle;Signal;HPM_P1;HPM_P2
2022/04/10 00:00:22;;;;;;;;;;;;;;;21.29;28.84;95612.06;10397701;28;1837;-70
2022/04/10 00:05:23;;;;;;;;;;;;;;;21.28;28.89;95617.63;10400691;28;1979;-70
2022/04/10 00:10:23;;;;;;;;;;;;;;;21.25;28.61;95608.44;10403130;28;1846;-69
2022/04/10 00:15:25;;;;;;;;;;;;;;;21.25;28.57;95607.66;10380349;28;1836;-70
2022/04/10 00:20:25;;;;;;;;;;;;;;;21.25;27.52;95615.56;10417453;28;1807;-71
2022/04/10 00:25:25;;;;;;;;;;;;;;;21.24;27.83;95612.16;10396383;28;1969;-71
2022/04/10 00:30:25;;;;;;;;;;;;;;;21.26;28.27;95614.50;10397562;28;1877;-71
2022/04/10 00:35:27;;;;;;;;;;;;;;;21.22;28.18;95614.28;10401179;28;2007;-70
2022/04/10 00:40:27;;;;;;;;;;;;;;;21.25;28.88;95615.56;10395941;28;1827;-71
2022/04/10 00:45:28;;;;;;;;;;;;;;;21.24;28.76;95619.25;10369454;28;2209;-70
2022/04/10 00:50:29;;;;;;;;;;;;;;;21.20;27.55;95615.63;10416750;28;1841;-70
2022/04/10 00:55:29;;;;;;;;;;;;;;;21.21;27.93;95617.19;10379999;28;2018;-70
2022/04/10 01:00:30;;;;;;;;;;;;;;;21.22;27.46;95616.13;10397442;28;1968;-70
2022/04/10 01:05:30;;;;;;;;;;;;;;;21.21;28.28;95620.59;10398268;28;1961;-70
2022/04/10 01:10:30;;;;;;;;;;;;;;;21.20;27.88;95613.00;10399034;28;1946;-70
2022/04/10 01:15:31;;;;;;;;;;;;;;;21.19;26.72;95611.41;10395961;28;1873;-71
2022/04/10 01:20:32;;;;;;;;;;;;;;;21.20;28.29;95620.91;10396116;28;1968;-70
2022/04/10 01:25:33;;;;;;;;;;;;;;;21.19;27.34;95614.84;10400275;28;1971;-70
2022/04/10 01:30:34;;;;;;;;;;;;;;;21.17;27.41;95631.97;10411172;28;1865;-70
2022/04/10 01:35:34;;;;;;;;;;;;;;;21.16;27.87;95636.50;10396177;28;2072;-71
2022/04/10 01:40:35;;;;;;;;;;;;;;;21.16;28.10;95631.22;10396441;28;2004;-70
2022/04/10 01:45:36;;;;;;;;;;;;;;;21.15;26.55;95634.13;10397047;28;1981;-70
2022/04/10 01:50:36;;;;;;;;;;;;;;;21.17;27.14;95626.72;10410443;28;1947;-70
2022/04/10 01:55:37;;;;;;;;;;;;;;;21.17;27.45;95634.63;10396986;28;1932;-70
2022/04/10 02:00:38;;;;;;;;;;;;;;;21.16;26.52;95635.69;10382541;28;1965;-70
2022/04/10 02:05:38;;;;;;;;;;;;;;;21.17;27.49;95631.97;10431801;22;2569;-57
2022/04/10 02:10:39;;;;;;;;;;;;;;;21.17;26.93;95638.06;10377999;28;1875;-59
2022/04/10 02:15:40;;;;;;;;;;;;;;;21.15;26.81;95636.75;10388791;28;1906;-57
2022/04/10 02:20:41;;;;;;;;;;;;;;;21.14;27.00;95641.25;10392465;28;1895;-56
2022/04/10 02:25:42;;;;;;;;;;;;;;;21.15;26.81;95660.47;10391787;28;1928;-57
2022/04/10 02:30:42;;;;;;;;;;;;;;;21.17;27.46;95655.72;10390167;28;2005;-58
2022/04/10 02:35:43;;;;;;;;;;;;;;;21.16;26.99;95657.56;10398931;28;2097;-59
2022/04/10 02:40:43;;;;;;;;;;;;;;;21.17;26.96;95660.97;10369852;28;1931;-57
2022/04/10 02:45:44;;;;;;;;;;;;;;;21.13;26.89;95657.31;10381929;28;1989;-56
2022/04/10 02:50:45;;;;;;;;;;;;;;;21.15;26.78;95663.09;10384894;28;1985;-56
2022/04/10 02:55:45;;;;;;;;;;;;;;;21.12;27.01;95658.41;10386085;28;1937;-58
2022/04/10 03:00:47;;;;;;;;;;;;;;;21.10;26.81;95668.44;10387916;28;1882;-55
2022/04/10 03:05:48;;;;;;;;;;;;;;;21.15;27.57;95673.66;10375320;28;2053;-57
2022/04/10 03:10:48;;;;;;;;;;;;;;;21.12;26.89;95671.59;10375322;28;1922;-56
2022/04/10 03:15:48;;;;;;;;;;;;;;;21.10;26.80;95669.25;10379771;28;2000;-58
2022/04/10 03:20:49;;;;;;;;;;;;;;;21.10;26.55;95671.09;10395410;28;2001;-59
2022/04/10 03:25:49;;;;;;;;;;;;;;;21.06;26.02;95674.25;10380133;28;2018;-56
2022/04/10 03:30:50;;;;;;;;;;;;;;;21.11;26.67;95670.00;10392350;28;2345;-56
2022/04/10 03:35:50;;;;;;;;;;;;;;;21.06;26.37;95669.00;10394838;28;2366;-57
2022/04/10 03:40:50;;;;;;;;;;;;;;;21.06;26.25;95671.63;10397209;28;2009;-58
2022/04/10 03:45:51;;;;;;;;;;;;;;;21.10;27.09;95673.72;10391899;28;1925;-54
2022/04/10 03:50:51;;;;;;;;;;;;;;;21.06;26.62;95678.75;10395785;28;2174;-56
2022/04/10 03:55:52;;;;;;;;;;;;;;;21.05;26.54;95680.59;10380555;28;2072;-57
2022/04/10 04:00:52;;;;;;;;;;;;;;;21.10;26.81;95689.53;10396423;28;2302;-58
2022/04/10 04:05:53;;;;;;;;;;;;;;;21.08;26.13;95691.66;10391988;28;1969;-56
2022/04/10 04:10:53;;;;;;;;;;;;;;;21.08;26.90;95698.50;10392813;28;1981;-58
2022/04/10 04:15:54;;;;;;;;;;;;;;;21.11;27.01;95701.63;10389008;28;1909;-56
2022/04/10 04:20:54;;;;;;;;;;;;;;;21.12;27.06;95703.22;10374628;28;1998;-57
2022/04/10 04:25:55;;;;;;;;;;;;;;;21.11;26.54;95712.16;10379346;28;2038;-59
2022/04/10 04:30:56;;;;;;;;;;;;;;;21.12;26.93;95711.13;10372911;28;1947;-56
2022/04/10 04:35:56;;;;;;;;;;;;;;;21.13;27.22;95717.94;10377591;28;1986;-58
2022/04/10 04:40:56;;;;;;;;;;;;;;;21.08;26.51;95714.31;10391141;28;1857;-55
2022/04/10 04:45:58;;;;;;;;;;;;;;;21.09;26.79;95720.38;10389609;28;2058;-55
2022/04/10 04:51:00;;;;;;;;;;;;;;;21.09;26.85;95720.38;10371272;28;2014;-56
2022/04/10 04:56:01;;;;;;;;;;;;;;;21.08;26.53;95723.28;10389500;28;2069;-56
2022/04/10 05:01:01;;;;;;;;;;;;;;;21.06;26.74;95732.25;10396195;28;2153;-55
2022/04/10 05:06:02;;;;;;;;;;;;;;;21.11;27.39;95741.16;10391678;28;1973;-55
2022/04/10 05:11:02;;;;;;;;;;;;;;;21.12;26.94;95758.56;10391753;28;1914;-54
2022/04/10 05:16:02;;;;;;;;;;;;;;;21.11;27.03;95764.88;10387531;28;1962;-54
2022/04/10 05:21:03;;;;;;;;;;;;;;;21.09;27.69;95762.53;10390429;28;1985;-55
2022/04/10 05:26:04;;;;;;;;;;;;;;;21.05;26.83;95761.50;10386847;28;1969;-54
2022/04/10 05:31:04;;;;;;;;;;;;;;;21.04;26.55;95771.25;10367768;28;2049;-52
2022/04/10 05:36:05;;;;;;;;;;;;;;;21.05;26.83;95778.13;10373930;28;1995;-59
2022/04/10 05:41:06;;;;;;;;;;;;;;;21.07;27.37;95785.75;10368060;28;2045;-56
2022/04/10 05:46:06;;;;;;;;;;;;;;;21.06;27.12;95781.56;10389192;28;1918;-55
2022/04/10 05:51:07;;;;;;;;;;;;;;;21.05;26.89;95801.06;10387568;28;1922;-55
2022/04/10 05:56:07;;;;;;;;;;;;;;;21.04;27.41;95802.88;10397891;28;1931;-53
2022/04/10 06:01:07;;;;;;;;;;;;;;;21.02;26.67;95805.00;10375516;28;1925;-54
2022/04/10 06:06:08;;;;;;;;;;;;;;;21.02;27.24;95815.56;10371749;28;2010;-55
2022/04/10 06:11:08;;;;;;;;;;;;;;;21.03;27.06;95813.72;10393940;28;1900;-55
2022/04/10 06:16:09;;;;;;;;;;;;;;;21.01;26.68;95831.63;10373230;28;1868;-57
2022/04/10 06:21:10;;;;;;;;;;;;;;;21.03;27.32;95832.16;10371564;28;1942;-54
2022/04/10 06:26:10;;;;;;;;;;;;;;;21.00;26.77;95838.72;10390705;28;1945;-56
2022/04/10 06:31:11;;;;;;;;;;;;;;;21.01;27.39;95850.88;10391236;28;1977;-55
2022/04/10 06:36:11;;;;;;;;;;;;;;;21.01;26.99;95858.78;10398804;28;1905;-54
2022/04/10 06:41:11;;;;;;;;;;;;;;;21.04;27.43;95860.88;10396048;28;1998;-55
2022/04/10 06:46:12;;;;;;;;;;;;;;;21.02;27.14;95863.00;10382417;28;2084;-57
2022/04/10 06:51:12;;;;;;;;;;;;;;;21.03;26.83;95869.06;10392917;28;2022;-56
2022/04/10 06:56:12;;;;;;;;;;;;;;;21.05;27.25;95870.38;10371227;28;1969;-56
2022/04/10 07:01:13;;;;;;;;;;;;;;;21.06;27.73;95874.56;10372393;28;1836;-55
2022/04/10 07:06:13;;;;;;;;;;;;;;;21.06;27.25;95885.09;10388477;28;1918;-56
2022/04/10 07:11:13;;;;;;;;;;;;;;;21.04;27.24;95874.03;10377409;28;1942;-57
2022/04/10 07:16:14;;;;;;;;;;;;;;;21.06;26.97;95886.97;10399840;28;1977;-51
2022/04/10 07:21:14;;;;;;;;;;;;;;;21.18;28.48;95882.16;10375708;28;1879;-53
2022/04/10 07:26:15;;;;;;;;;;;;;;;21.19;28.68;95888.19;10394567;28;2019;-54
2022/04/10 07:31:17;;;;;;;;;;;;;;;21.17;28.54;95885.03;10374155;28;1978;-50
2022/04/10 07:36:17;;;;;;;;;;;;;;;21.17;28.57;95885.84;10397694;28;2002;-54
2022/04/10 07:41:17;;;;;;;;;;;;;;;21.21;28.74;95897.41;10377749;28;1969;-56
2022/04/10 07:51:36;;;;;;;;;;;;;;;21.22;29.15;95898.19;10388877;28;2018;-54
2022/04/10 07:56:37;;;;;;;;;;;;;;;21.30;29.52;95905.53;10373532;28;1982;-52
2022/04/10 08:01:38;;;;;;;;;;;;;;;21.20;28.71;95905.59;10371420;28;2097;-53
2022/04/10 08:06:38;;;;;;;;;;;;;;;21.21;29.37;95917.69;10371623;28;1965;-53
2022/04/10 08:11:39;;;;;;;;;;;;;;;21.19;29.02;95915.34;10353443;28;2042;-55
2022/04/10 08:16:42;;;;;;;;;;;;;;;21.17;29.24;95911.41;10395732;28;1985;-52
2022/04/10 08:21:43;;;;;;;;;;;;;;;21.22;30.01;95916.66;10391680;28;1937;-51
2022/04/10 08:26:43;;;;;;;;;;;;;;;21.20;29.57;95916.13;10387122;28;1981;-51
2022/04/10 08:31:43;;;;;;;;;;;;;;;21.17;29.29;95927.22;10399028;28;1962;-55
2022/04/10 08:36:44;;;;;;;;;;;;;;;21.15;29.59;95950.44;10380377;28;2051;-51
2022/04/10 08:41:46;;;;;;;;;;;;;;;21.15;28.54;95937.25;10385415;28;1909;-53
2022/04/10 08:46:48;;;;;;;;;;;;;;;21.12;28.26;95940.44;10379769;28;1975;-52
2022/04/10 08:51:49;;;;;;;;;;;;;;;21.08;27.91;95942.03;10392810;28;1977;-55
2022/04/10 08:56:52;;;;;;;;;;;;;;;21.08;27.79;95940.97;10372546;28;1840;-55
2022/04/10 09:01:53;;;;;;;;;;;;;;;21.11;28.12;95950.19;10394107;28;1833;-53
2022/04/10 09:07:05;;;;;;;;;;;;;;;21.10;27.76;95943.34;10370997;28;1991;-49
2022/04/10 09:12:05;;;;;;;;;;;;;;;21.11;27.78;95941.50;10391028;28;1843;-53
2022/04/10 09:17:09;;;;;;;;;;;;;;;21.11;28.35;95955.47;10375062;28;1742;-52
2022/04/10 09:22:29;;;;;;;;;;;;;;;21.11;27.93;95949.41;10391955;28;1819;-53
2022/04/10 09:27:39;;;;;;;;;;;;;;;21.15;28.38;95945.16;10371011;28;1922;-52
2022/04/10 09:32:43;;;;;;;;;;;;;;;21.17;29.84;95933.28;10374238;28;1895;-54
2022/04/10 09:37:53;;;;;;;;;;;;;;;21.22;29.91;95935.09;10377483;28;1848;-53
2022/04/10 09:42:58;;;;;;;;;;;;;;;21.22;30.28;95932.47;10372063;28;1842;-55
2022/04/10 09:48:18;;;;;;;;;;;;;;;21.24;30.63;95938.25;10374709;28;2047;-54
2022/04/10 09:53:18;;;;;;;;;;;;;;;21.27;30.60;95933.22;10369281;28;1844;-55
2022/04/10 09:58:18;;;;;;;;;;;;;;;21.24;30.31;95917.16;10373464;28;1792;-55
2022/04/10 10:03:20;;;;;;;;;;;;;;;21.22;30.39;95920.09;10364646;28;1926;-53
2022/04/10 10:08:21;;;;;;;;;;;;;;;21.23;30.85;95921.66;10393664;28;1846;-55
2022/04/10 10:13:26;;;;;;;;;;;;;;;21.25;31.23;95924.78;10399403;28;2031;-55
2022/04/10 10:18:27;;;;;;;;;;;;;;;21.33;32.46;95931.34;10400706;28;1835;-53
2022/04/10 10:23:28;;;;;;;;;;;;;;;21.26;32.08;95936.13;10369849;28;1968;-50
2022/04/10 10:28:55;;;;;;;;;;;;;;;21.35;34.22;95931.88;10381584;28;1775;-53
2022/04/10 10:33:57;;;;;;;;;;;;;;;21.34;34.29;95933.72;10400106;28;1818;-55
2022/04/10 10:38:57;;;;;;;;;;;;;;;21.34;34.73;95919.72;10367458;28;1802;-55
2022/04/10 10:43:58;;;;;;;;;;;;;;;21.35;34.15;95924.72;10377618;28;1969;-51
2022/04/10 10:49:08;;;;;;;;;;;;;;;21.38;33.92;95910.22;10383180;28;2207;-51
2022/04/10 10:54:11;;;;;;;;;;;;;;;21.30;33.33;95908.16;10373838;28;1842;-52
2022/04/10 10:59:27;;;;;;;;;;;;;;;21.23;32.86;95915.56;10379186;28;1846;-55
2022/04/10 11:04:28;;;;;;;;;;;;;;;21.23;33.51;95924.28;10383415;28;1913;-54
2022/04/10 11:09:31;;;;;;;;;;;;;;;21.21;33.30;95918.50;10396090;28;1838;-56
2022/04/10 11:14:41;;;;;;;;;;;;;;;21.16;33.61;95920.38;10377089;28;2165;-54
2022/04/10 11:19:48;;;;;;;;;;;;;;;21.15;33.18;95924.06;10397427;28;1878;-54
2022/04/10 11:24:50;;;;;;;;;;;;;;;21.15;33.44;95931.97;10397119;28;1963;-53
2022/04/10 11:30:01;;;;;;;;;;;;;;;21.16;33.41;95936.19;10397724;28;1883;-52
2022/04/10 11:35:02;;;;;;;;;;;;;;;21.12;31.88;95948.34;10393627;28;1837;-53
2022/04/10 11:40:03;;;;;;;;;;;;;;;21.11;31.46;95966.00;10398360;28;1806;-53
2022/04/10 11:45:04;;;;;;;;;;;;;;;21.09;31.56;95965.50;10363257;28;1910;-54
2022/04/10 11:50:06;;;;;;;;;;;;;;;21.11;30.45;95973.13;10377567;28;1806;-54
2022/04/10 11:55:08;;;;;;;;;;;;;;;21.16;32.77;95954.66;10359170;28;1892;-56
2022/04/10 12:00:10;;;;;;;;;;;;;;;21.26;33.40;95954.59;10376745;28;1883;-55
2022/04/10 12:05:10;;;;;;;;;;;;;;;21.31;33.67;95955.34;10393936;28;1910;-56
2022/04/10 12:10:10;;;;;;;;;;;;;;;21.35;35.19;95951.09;10395638;28;1845;-56
2022/04/10 12:15:18;;;;;;;;;;;;;;;21.32;33.55;95964.84;10393736;28;1842;-53
2022/04/10 12:20:22;;;;;;;;;;;;;;;21.40;35.67;95959.00;10360233;28;1929;-54
2022/04/10 12:25:22;;;;;;;;;;;;;;;21.42;35.10;95956.06;10392464;28;1950;-56
2022/04/10 12:30:23;;;;;;;;;;;;;;;21.40;35.13;95934.47;10373151;28;2002;-56
2022/04/10 12:35:23;;;;;;;;;;;;;;;21.42;35.71;95943.69;10399618;28;1862;-56
2022/04/10 12:40:26;;;;;;;;;;;;;;;21.41;35.55;95943.97;10383949;28;1642;-55
2022/04/10 12:45:33;;;;;;;;;;;;;;;21.37;35.06;95929.75;10382818;23;2226;-51
2022/04/10 12:50:34;;;;;;;;;;;;;;;21.36;36.41;95928.16;10380975;28;1797;-53
2022/04/10 12:55:36;;;;;;;;;;;;;;;21.35;36.24;95921.31;10382055;28;1875;-51
2022/04/10 13:00:43;;;;;;;;;;;;;;;21.34;35.77;95922.38;10383972;28;1815;-52
2022/04/10 13:05:59;;;;;;;;;;;;;;;21.33;35.73;95923.44;10378309;28;1924;-51
2022/04/10 13:11:00;;;;;;;;;;;;;;;21.29;35.50;95915.28;10397755;28;1796;-55
2022/04/10 13:16:09;;;;;;;;;;;;;;;21.29;35.15;95917.16;10396166;28;1843;-55
2022/04/10 13:21:09;;;;;;;;;;;;;;;21.27;35.62;95919.28;10401024;28;1956;-55
2022/04/10 13:26:10;;;;;;;;;;;;;;;21.27;35.55;95927.94;10382027;28;1918;-49
2022/04/10 13:31:11;;;;;;;;;;;;;;;21.25;35.39;95910.81;10395852;28;1839;-49
2022/04/10 13:36:11;;;;;;;;;;;;;;;21.28;35.25;95907.66;10396637;28;1831;-54
2022/04/10 13:41:12;;;;;;;;;;;;;;;21.28;35.16;95912.91;10393484;28;1859;-54
2022/04/10 13:46:12;;;;;;;;;;;;;;;21.28;35.16;95912.91;10373191;28;2088;-49
2022/04/10 13:51:13;;;;;;;;;;;;;;;21.29;35.64;95909.25;10381038;28;1793;-49
2022/04/10 13:56:14;;;;;;;;;;;;;;;21.39;35.55;95909.16;10380447;28;1855;-54
2022/04/10 14:01:14;;;;;;;;;;;;;;;21.37;35.56;95911.28;10384305;28;1914;-53
2022/04/10 14:06:15;;;;;;;;;;;;;;;21.50;35.35;95918.56;10375467;28;1940;-54
2022/04/10 14:11:16;;;;;;;;;;;;;;;21.59;35.68;95916.94;10357721;28;1815;-49
2022/04/10 14:16:16;;;;;;;;;;;;;;;21.67;34.35;95925.03;10365067;28;1854;-53
2022/04/10 14:21:17;;;;;;;;;;;;;;;21.76;34.19;95918.09;10378974;28;1890;-53
2022/04/10 14:26:17;;;;;;;;;;;;;;;21.84;32.82;95916.75;10359757;28;1922;-54
2022/04/10 14:31:18;;;;;;;;;;;;;;;21.90;32.63;95905.09;10377083;28;1840;-56
2022/04/10 14:36:18;;;;;;;;;;;;;;;21.95;30.99;95894.47;10391675;28;1928;-53
2022/04/10 14:41:20;;;;;;;;;;;;;;;22.12;33.00;95894.84;10376764;28;1721;-50
2022/04/10 14:46:20;;;;;;;;;;;;;;;22.21;33.43;95892.38;10396638;28;1910;-54
2022/04/10 14:51:21;;;;;;;;;;;;;;;22.25;33.37;95893.38;10398759;28;1807;-51
2022/04/10 14:56:21;;;;;;;;;;;;;;;22.26;33.61;95892.31;10400020;28;1883;-52
2022/04/10 15:01:21;;;;;;;;;;;;;;;22.29;31.84;95903.13;10400905;28;1717;-54
2022/04/10 15:06:22;;;;;;;;;;;;;;;22.32;33.30;95912.31;10401601;28;1988;-56
2022/04/10 15:11:23;;;;;;;;;;;;;;;22.34;33.37;95921.53;10403557;28;1815;-52
2022/04/10 15:16:24;;;;;;;;;;;;;;;22.37;33.07;95907.78;10405429;28;1843;-47
2022/04/10 15:21:25;;;;;;;;;;;;;;;22.33;32.86;95919.19;10389088;28;1839;-51
2022/04/10 15:26:25;;;;;;;;;;;;;;;22.35;32.69;95960.09;10398269;28;1910;-50
2022/04/10 15:31:25;;;;;;;;;;;;;;;22.39;33.37;95965.59;10392608;28;2206;-51
2022/04/10 15:36:26;;;;;;;;;;;;;;;22.44;33.23;95968.19;10402549;28;1922;-49
2022/04/10 15:41:26;;;;;;;;;;;;;;;22.42;33.68;95965.06;10383750;28;1788;-51
2022/04/10 15:46:27;;;;;;;;;;;;;;;22.45;33.24;95959.19;10401388;28;2307;-52
2022/04/10 15:51:28;;;;;;;;;;;;;;;22.41;33.29;95958.97;10364958;28;1940;-50
2022/04/10 15:56:28;;;;;;;;;;;;;;;22.39;33.35;95966.41;10366766;28;1859;-54
2022/04/10 16:01:28;;;;;;;;;;;;;;;22.37;32.77;95965.09;10381827;28;1879;-50
2022/04/10 16:06:29;;;;;;;;;;;;;;;22.41;32.98;95968.75;10383744;28;1912;-52
2022/04/10 16:11:29;;;;;;;;;;;;;;;22.40;33.17;95978.53;10363921;28;1855;-54
2022/04/10 16:16:29;;;;;;;;;;;;;;;22.44;32.52;95968.97;10380476;28;1815;-53
2022/04/10 16:21:30;;;;;;;;;;;;;;;22.42;32.39;95965.81;10378944;28;1872;-53
2022/04/10 16:26:31;;;;;;;;;;;;;;;22.40;32.01;95970.59;10396139;28;1910;-56
2022/04/10 16:31:31;;;;;;;;;;;;;;;22.44;31.11;95974.25;10396268;28;1872;-50
2022/04/10 16:36:32;;;;;;;;;;;;;;;22.41;32.55;95968.75;10379714;28;3318;-50
2022/04/10 16:41:32;;;;;;;;;;;;;;;22.46;31.95;95964.19;10395818;28;1904;-56
2022/04/10 16:46:33;;;;;;;;;;;;;;;22.48;31.41;95964.69;10398419;28;1938;-51
2022/04/10 16:51:33;;;;;;;;;;;;;;;22.47;31.83;95957.84;10393043;28;1859;-58
2022/04/10 16:56:34;;;;;;;;;;;;;;;22.45;31.65;95954.72;10373716;28;1957;-54
2022/04/10 17:01:34;;;;;;;;;;;;;;;22.38;31.69;95954.25;10397794;28;1800;-55
2022/04/10 17:06:35;;;;;;;;;;;;;;;22.36;31.97;95956.38;10396207;28;1922;-55
2022/04/10 17:11:38;;;;;;;;;;;;;;;22.39;32.85;95962.97;10378160;28;1812;-52
2022/04/10 17:16:42;;;;;;;;;;;;;;;22.39;33.23;95957.69;10393298;28;1875;-55
2022/04/10 17:21:43;;;;;;;;;;;;;;;22.38;33.56;95971.97;10385455;28;1836;-54
2022/04/10 17:26:43;;;;;;;;;;;;;;;22.35;32.75;95970.66;10374507;28;1973;-54
2022/04/10 17:31:43;;;;;;;;;;;;;;;22.39;35.43;95976.97;10373524;28;2154;-53
2022/04/10 17:36:44;;;;;;;;;;;;;;;22.39;32.92;95976.97;10375993;28;1900;-55
2022/04/10 17:41:45;;;;;;;;;;;;;;;22.36;32.29;95974.84;10373561;28;2248;-56
2022/04/10 17:46:46;;;;;;;;;;;;;;;22.37;34.34;95988.88;10380769;28;1914;-54
2022/04/10 17:51:46;;;;;;;;;;;;;;;22.35;32.91;95983.06;10371833;28;1979;-54
2022/04/10 17:56:47;;;;;;;;;;;;;;;22.38;34.23;95988.56;10376867;28;1869;-55
2022/04/10 18:01:50;;;;;;;;;;;;;;;22.32;34.15;95989.69;10380103;28;1953;-54
2022/04/10 18:06:50;;;;;;;;;;;;;;;22.34;34.38;95995.47;10396181;28;1983;-53
2022/04/10 18:11:51;;;;;;;;;;;;;;;22.36;34.82;95998.63;10376232;28;1832;-55
2022/04/10 18:16:52;;;;;;;;;;;;;;;22.34;34.37;96000.75;10392896;28;1900;-54
2022/04/10 18:21:52;;;;;;;;;;;;;;;22.38;36.26;96001.00;10392658;28;1872;-53
2022/04/10 18:26:52;;;;;;;;;;;;;;;22.46;36.35;96009.09;10388437;28;1916;-57
2022/04/10 18:31:53;;;;;;;;;;;;;;;22.46;35.23;96009.09;10398826;28;1858;-55
2022/04/10 18:36:53;;;;;;;;;;;;;;;22.42;36.08;96018.66;10381304;28;1999;-53
2022/04/10 18:41:53;;;;;;;;;;;;;;;22.42;35.81;96018.66;10378900;28;1913;-59
2022/04/10 18:46:56;;;;;;;;;;;;;;;22.43;35.49;96017.59;10398311;28;1963;-51
2022/04/10 18:51:57;;;;;;;;;;;;;;;22.43;36.54;96020.25;10379666;28;1877;-49
2022/04/10 18:56:57;;;;;;;;;;;;;;;22.45;34.78;96017.31;10377857;28;1844;-50
2022/04/10 19:01:58;;;;;;;;;;;;;;;22.40;35.94;96015.50;10377120;28;1854;-49
2022/04/10 19:06:59;;;;;;;;;;;;;;;22.41;35.36;96022.38;10378519;28;1914;-61
2022/04/10 19:11:59;;;;;;;;;;;;;;;22.40;34.72;96022.66;10378935;28;1953;-60
2022/04/10 19:17:00;;;;;;;;;;;;;;;22.38;34.72;96019.50;10385581;28;1917;-62
2022/04/10 19:22:04;;;;;;;;;;;;;;;22.39;34.16;96018.41;10400584;28;1868;-60
2022/04/10 19:27:04;;;;;;;;;;;;;;;22.37;34.63;96029.28;10388385;28;1959;-53
2022/04/10 19:32:05;;;;;;;;;;;;;;;22.30;34.74;96025.34;10399073;28;1863;-56
2022/04/10 19:37:06;;;;;;;;;;;;;;;22.31;33.74;96027.75;10395946;28;1906;-55
2022/04/10 19:42:06;;;;;;;;;;;;;;;22.08;33.80;96033.75;10378838;28;1872;-54
2022/04/10 19:47:06;;;;;;;;;;;;;;;21.94;33.82;96034.63;10377156;28;2009;-55
2022/04/10 19:52:07;;;;;;;;;;;;;;;21.81;34.51;96033.38;10379767;28;1927;-55
2022/04/10 19:57:08;;;;;;;;;;;;;;;21.68;34.21;96044.53;10376421;28;1906;-58
2022/04/10 20:02:08;;;;;;;;;;;;;;;21.57;34.48;96029.84;10375434;28;1963;-55
2022/04/10 20:07:09;;;;;;;;;;;;;;;21.50;34.42;96037.25;10386049;28;1906;-51
2022/04/10 20:12:09;;;;;;;;;;;;;;;21.44;34.46;96036.50;10374496;28;1885;-57
2022/04/10 20:17:09;;;;;;;;;;;;;;;21.38;34.89;96034.94;10377624;28;1853;-52
2022/04/10 20:22:10;;;;;;;;;;;;;;;21.35;34.72;96034.72;10393858;28;1901;-55
2022/04/10 20:27:10;;;;;;;;;;;;;;;21.30;34.73;96032.09;10391177;28;2026;-53
2022/04/10 20:32:11;;;;;;;;;;;;;;;21.26;34.93;96036.31;10391293;28;1844;-56
2022/04/10 20:37:12;;;;;;;;;;;;;;;21.24;34.91;96035.81;10393753;28;1887;-55
2022/04/10 20:42:12;;;;;;;;;;;;;;;21.22;34.84;96030.03;10376454;28;1881;-54
2022/04/10 20:47:13;;;;;;;;;;;;;;;21.21;34.79;96036.34;10397030;28;1949;-53
2022/04/10 20:52:13;;;;;;;;;;;;;;;21.23;34.58;96023.66;10395115;28;1870;-53
2022/04/10 20:57:13;;;;;;;;;;;;;;;21.20;34.42;96026.88;10380258;28;1939;-56
2022/04/10 21:02:14;;;;;;;;;;;;;;;21.18;34.25;96015.78;10395007;28;1847;-51
2022/04/10 21:07:14;;;;;;;;;;;;;;;21.19;34.20;96030.53;10378434;28;1971;-53
2022/04/10 21:12:16;;;;;;;;;;;;;;;21.15;34.12;96024.22;10397826;28;1832;-55
2022/04/10 21:17:17;;;;;;;;;;;;;;;21.18;34.05;96023.72;10378863;28;2260;-54
2022/04/10 21:22:17;;;;;;;;;;;;;;;21.12;33.86;96020.31;10376018;28;2102;-51
2022/04/10 21:27:17;;;;;;;;;;;;;;;21.15;33.77;96026.88;10377372;28;1978;-57
2022/04/10 21:32:17;;;;;;;;;;;;;;;21.16;33.45;96025.81;10389491;28;1812;-54
2022/04/10 21:37:18;;;;;;;;;;;;;;;21.15;33.52;96018.97;10372682;28;1872;-54
2022/04/10 21:42:18;;;;;;;;;;;;;;;21.14;33.39;96017.41;10378050;28;1810;-57
2022/04/10 21:47:18;;;;;;;;;;;;;;;21.15;33.28;96018.97;10377867;28;1929;-53
2022/04/10 21:52:19;;;;;;;;;;;;;;;21.18;33.28;96008.69;10377577;28;1753;-53
2022/04/10 21:57:19;;;;;;;;;;;;;;;21.15;33.18;96018.97;10373975;28;1748;-54
2022/04/10 22:02:19;;;;;;;;;;;;;;;21.16;32.81;96016.06;10373797;28;1859;-54
2022/04/10 22:07:20;;;;;;;;;;;;;;;21.14;33.04;96012.13;10385264;28;1977;-54
2022/04/10 22:12:21;;;;;;;;;;;;;;;21.16;32.49;96010.81;10398296;28;1875;-55
2022/04/10 22:17:21;;;;;;;;;;;;;;;21.15;32.62;96008.41;10409021;28;1792;-51
2022/04/10 22:22:21;;;;;;;;;;;;;;;21.14;32.70;96012.94;10398352;28;1807;-54
2022/04/10 22:27:22;;;;;;;;;;;;;;;21.14;32.51;96006.84;10402685;28;1972;-55
2022/04/10 22:32:22;;;;;;;;;;;;;;;21.15;32.42;96003.16;10400863;28;1905;-57
2022/04/10 22:37:23;;;;;;;;;;;;;;;21.14;32.40;96005.03;10403351;28;1854;-53
2022/04/10 22:42:24;;;;;;;;;;;;;;;21.14;32.01;96007.66;10402210;28;1851;-54
2022/04/10 22:47:25;;;;;;;;;;;;;;;21.12;32.04;96008.97;10385902;28;1910;-54
2022/04/10 22:52:30;;;;;;;;;;;;;;;21.13;32.08;96011.34;10397850;28;1811;-56
2022/04/10 22:57:30;;;;;;;;;;;;;;;21.13;32.12;96013.19;10396231;28;1752;-54
2022/04/10 23:02:31;;;;;;;;;;;;;;;21.12;32.07;96012.41;10396675;28;1862;-52
2022/04/10 23:07:31;;;;;;;;;;;;;;;21.13;31.71;96010.53;10402503;28;1898;-50
2022/04/10 23:12:32;;;;;;;;;;;;;;;21.13;31.81;96013.19;10397525;28;1835;-52
2022/04/10 23:17:32;;;;;;;;;;;;;;;21.13;31.57;96015.81;10395643;28;1907;-51
2022/04/10 23:22:32;;;;;;;;;;;;;;;21.11;31.71;96013.44;10399828;28;1784;-51
2022/04/10 23:27:33;;;;;;;;;;;;;;;21.12;31.91;96011.59;10397344;28;1983;-52
2022/04/10 23:32:39;;;;;;;;;;;;;;;21.12;31.48;95999.22;10396474;28;1970;-53
2022/04/10 23:37:39;;;;;;;;;;;;;;;21.13;31.33;96003.44;10382713;28;1886;-54
2022/04/10 23:42:40;;;;;;;;;;;;;;;21.12;31.57;96001.06;10378976;28;1883;-52
2022/04/10 23:47:40;;;;;;;;;;;;;;;21.12;31.46;96003.69;10400032;28;1969;-53
2022/04/10 23:52:41;;;;;;;;;;;;;;;21.12;31.36;96003.69;10392010;28;1855;-57
2022/04/10 23:57:41;;;;;;;;;;;;;;;21.12;31.09;96003.69;10392941;28;1800;-56
